createdAt,value
2023-05-16T00:00:03.074Z,10.4
2023-05-16T00:15:02.359Z,10.0
2023-05-16T00:30:03.058Z,9.9
2023-05-16T00:45:02.276Z,9.7
2023-05-16T01:00:02.697Z,9.3
2023-05-16T01:15:03.142Z,9.1
2023-05-16T01:30:02.557Z,9.1
2023-05-16T01:45:03.091Z,9.1
2023-05-16T02:00:02.452Z,9.0
2023-05-16T02:15:03.086Z,9.0
2023-05-16T02:30:02.387Z,8.8
2023-05-16T02:45:02.729Z,8.6
2023-05-16T03:00:03.193Z,8.4
2023-05-16T03:15:02.612Z,8.3
2023-05-16T03:30:03.129Z,8.1
2023-05-16T03:45:02.478Z,8.1
2023-05-16T04:00:03.096Z,8.0
2023-05-16T04:15:02.380Z,8.1
2023-05-16T04:30:02.845Z,7.8
2023-05-16T04:45:02.252Z,7.5
2023-05-16T05:00:02.683Z,7.5
2023-05-16T05:15:03.138Z,7.5
2023-05-16T05:30:02.548Z,7.7
2023-05-16T05:45:03.143Z,8.1
2023-05-16T06:00:02.412Z,8.5
2023-05-16T06:15:02.868Z,8.9
2023-05-16T06:30:02.320Z,9.1
2023-05-16T06:45:02.774Z,10.1
2023-05-16T07:00:03.221Z,11.1
2023-05-16T07:15:02.675Z,11.3
2023-05-16T07:30:03.159Z,12.8
2023-05-16T07:45:02.515Z,13.8
2023-05-16T08:00:03.154Z,12.3
2023-05-16T08:15:02.398Z,12.6
2023-05-16T08:30:02.844Z,13.1
2023-05-16T08:45:02.297Z,13.2
2023-05-16T09:00:02.687Z,13.9
2023-05-16T09:15:03.173Z,13.2
2023-05-16T09:30:02.606Z,14.5
2023-05-16T09:45:03.195Z,14.4
2023-05-16T10:00:02.469Z,15.8
2023-05-16T10:15:02.895Z,15.3
2023-05-16T10:30:02.331Z,15.2
2023-05-16T10:45:05.834Z,15.3
2023-05-16T11:00:02.406Z,15.8
2023-05-16T11:15:02.645Z,15.9
2023-05-16T11:30:04.264Z,15.7
2023-05-16T11:45:02.534Z,14.6
2023-05-16T12:00:03.104Z,16.6
2023-05-16T12:15:02.414Z,16.4
2023-05-16T12:30:02.867Z,16.4
2023-05-16T12:45:02.302Z,14.7
2023-05-16T13:00:02.721Z,13.5
2023-05-16T13:15:03.226Z,14.9
2023-05-16T13:30:02.599Z,15.6
2023-05-16T13:45:03.221Z,14.7
2023-05-16T14:15:02.937Z,15.9
2023-05-16T14:30:02.393Z,14.1
2023-05-16T14:45:02.796Z,14.1
2023-05-16T15:00:03.306Z,14.6
2023-05-16T15:15:02.661Z,14.4
2023-05-16T15:30:03.294Z,15.1
2023-05-16T15:45:02.544Z,14.5
2023-05-16T16:00:03.183Z,13.8
2023-05-16T16:15:02.508Z,13.7
2023-05-16T16:30:02.869Z,13.0
2023-05-16T16:45:02.330Z,12.6
2023-05-16T17:00:02.753Z,12.5
2023-05-16T17:15:03.280Z,12.2
2023-05-16T17:30:02.606Z,11.8
2023-05-16T17:45:03.252Z,11.7
2023-05-16T18:00:02.496Z,11.4
2023-05-16T18:15:02.974Z,11.2
2023-05-16T18:30:02.624Z,11.0
2023-05-16T18:45:02.828Z,10.8
2023-05-16T19:00:03.271Z,10.7
2023-05-16T19:15:02.684Z,10.6
2023-05-16T19:30:03.277Z,10.5
2023-05-16T19:45:02.559Z,10.3
2023-05-16T20:00:03.024Z,10.2
2023-05-16T20:15:02.484Z,10.0
2023-05-16T20:30:02.894Z,9.8
2023-05-16T20:45:02.371Z,9.5
2023-05-16T21:00:02.773Z,9.2
2023-05-16T21:15:03.282Z,9.0
2023-05-16T21:30:02.682Z,9.0
2023-05-16T21:45:03.305Z,9.0
2023-05-16T22:00:02.527Z,9.0
2023-05-16T22:30:02.411Z,9.1
2023-05-16T22:45:02.854Z,9.2
2023-05-16T23:00:02.318Z,9.1
2023-05-16T23:15:02.737Z,8.9
2023-05-16T23:30:03.329Z,8.5
2023-05-16T23:45:02.605Z,8.4
